Time;durP1;ratioP1;P1;durP2;ratioP2;P2;SDS_P1;SDS_P2;PMS_P1;PMS_P2;Temp;Humidity;BMP_temperature;BMP_pressure;BME280_temperature;BME280_humidity;BME280_pressure;Samples;Min_cycle;Max_cycle;Signal;HPM_P1;HPM_P2
2023/07/28 00:01:33;;;;;;;6.40;4.57;;;16.30;99.90;;;;;;5018094;28;20652;-79
2023/07/28 00:03:59;;;;;;;9.35;5.50;;;16.40;99.90;;;;;;5035621;28;20199;-80
2023/07/28 00:06:24;;;;;;;9.73;6.03;;;16.40;99.90;;;;;;5017763;28;20234;-80
2023/07/28 00:08:51;;;;;;;8.68;5.75;;;16.30;99.90;;;;;;5035420;28;20278;-80
2023/07/28 00:11:16;;;;;;;12.07;6.85;;;16.40;99.90;;;;;;5017065;28;20262;-79
2023/07/28 00:13:43;;;;;;;9.13;6.60;;;16.30;99.90;;;;;;5016761;28;20246;-79
2023/07/28 00:16:10;;;;;;;14.18;7.45;;;16.30;99.90;;;;;;5037707;28;20182;-80
2023/07/28 00:18:36;;;;;;;14.20;7.63;;;16.30;99.90;;;;;;5040303;28;20284;-80
2023/07/28 00:21:02;;;;;;;12.77;8.80;;;16.30;99.90;;;;;;5040020;28;20175;-80
2023/07/28 00:23:28;;;;;;;12.48;8.45;;;16.40;99.90;;;;;;5021617;28;20202;-80
2023/07/28 00:25:54;;;;;;;14.68;9.40;;;16.40;99.90;;;;;;5020981;28;20225;-80
2023/07/28 00:28:19;;;;;;;13.65;9.10;;;16.30;99.90;;;;;;5039355;28;20183;-79
2023/07/28 00:30:49;;;;;;;15.80;10.23;;;16.30;99.90;;;;;;5039451;28;20225;-80
2023/07/28 00:33:15;;;;;;;19.52;10.20;;;16.40;99.90;;;;;;5020851;28;20207;-80
2023/07/28 00:35:41;;;;;;;15.30;10.63;;;16.40;99.90;;;;;;5020916;28;20190;-80
2023/07/28 00:38:08;;;;;;;18.52;11.85;;;16.40;99.90;;;;;;5020223;28;20199;-80
2023/07/28 00:40:34;;;;;;;15.32;11.32;;;16.30;99.90;;;;;;5020655;28;20168;-80
2023/07/28 00:43:00;;;;;;;17.05;10.82;;;16.40;99.90;;;;;;5020235;28;20228;-80
2023/07/28 00:45:26;;;;;;;20.13;11.13;;;16.40;99.90;;;;;;5020208;28;20214;-80
2023/07/28 00:47:52;;;;;;;19.70;11.13;;;16.30;99.90;;;;;;5038022;28;20182;-80
2023/07/28 00:50:18;;;;;;;14.95;10.85;;;16.30;99.90;;;;;;5019624;28;20544;-80
2023/07/28 00:52:46;;;;;;;16.65;9.70;;;16.30;99.90;;;;;;5018118;28;20330;-80
2023/07/28 00:55:12;;;;;;;14.60;9.18;;;16.30;99.90;;;;;;5000857;28;20184;-80
2023/07/28 00:57:39;;;;;;;15.60;10.23;;;16.30;99.90;;;;;;5018315;28;20188;-80
2023/07/28 01:00:05;;;;;;;14.27;9.20;;;16.30;99.90;;;;;;5000103;28;20176;-81
2023/07/28 01:02:31;;;;;;;15.48;9.95;;;16.30;99.90;;;;;;5000831;28;20223;-81
2023/07/28 01:04:58;;;;;;;17.45;8.80;;;16.30;99.90;;;;;;5000433;28;20633;-81
2023/07/28 01:07:30;;;;;;;15.93;9.50;;;16.30;99.90;;;;;;5000409;28;20176;-81
2023/07/28 01:10:24;;;;;;;13.00;8.88;;;16.30;99.90;;;;;;5000937;28;20656;-81
2023/07/28 01:12:50;;;;;;;15.35;9.65;;;16.30;99.90;;;;;;5001928;28;20215;-81
2023/07/28 01:15:15;;;;;;;15.73;9.02;;;16.30;99.90;;;;;;5018132;28;20183;-81
2023/07/28 01:17:42;;;;;;;13.38;8.77;;;16.30;99.90;;;;;;5017742;28;20250;-81
2023/07/28 01:20:08;;;;;;;12.15;8.93;;;16.30;99.90;;;;;;5034785;28;20179;-81
2023/07/28 01:23:06;;;;;;;13.60;7.97;;;16.30;99.90;;;;;;5018934;28;20233;-81
2023/07/28 01:25:52;;;;;;;12.65;8.63;;;16.30;99.90;;;;;;5018907;28;20179;-81
2023/07/28 01:28:19;;;;;;;15.98;8.88;;;16.30;99.90;;;;;;5017691;28;20279;-81
2023/07/28 01:30:45;;;;;;;13.75;8.57;;;16.30;99.90;;;;;;5018600;28;20278;-81
2023/07/28 01:33:11;;;;;;;14.32;9.18;;;16.30;99.90;;;;;;5018852;28;20199;-80
2023/07/28 01:35:40;;;;;;;18.00;9.13;;;16.30;99.90;;;;;;5018764;28;20190;-80
2023/07/28 01:38:05;;;;;;;14.35;8.93;;;16.30;99.90;;;;;;5036228;28;20269;-80
2023/07/28 01:40:31;;;;;;;14.93;8.95;;;16.30;99.90;;;;;;5018441;28;20210;-81
2023/07/28 01:42:57;;;;;;;19.27;8.52;;;16.30;99.90;;;;;;5018658;28;20201;-81
2023/07/28 01:45:23;;;;;;;15.38;8.80;;;16.30;99.90;;;;;;5035939;28;20172;-81
2023/07/28 01:47:49;;;;;;;14.70;8.48;;;16.30;99.90;;;;;;5036498;28;20182;-81
2023/07/28 01:50:14;;;;;;;14.68;8.30;;;16.30;99.90;;;;;;5035884;28;20183;-81
2023/07/28 01:52:40;;;;;;;16.55;8.57;;;16.30;99.90;;;;;;5018387;28;20199;-81
2023/07/28 01:55:06;;;;;;;12.60;7.93;;;16.30;99.90;;;;;;5036357;28;20179;-81
2023/07/28 01:57:39;;;;;;;15.77;8.23;;;16.30;99.90;;;;;;5018111;28;20210;-81
2023/07/28 02:00:05;;;;;;;12.13;7.97;;;16.30;99.90;;;;;;5035793;28;20183;-81
2023/07/28 02:02:31;;;;;;;12.40;7.70;;;16.30;99.90;;;;;;5018235;28;20191;-81
2023/07/28 02:04:57;;;;;;;11.18;7.88;;;16.30;99.90;;;;;;5036375;28;20521;-81
2023/07/28 02:07:22;;;;;;;12.30;8.13;;;16.30;99.90;;;;;;5018397;28;20540;-81
2023/07/28 02:09:48;;;;;;;12.27;8.40;;;16.30;99.90;;;;;;5035796;28;20167;-81
2023/07/28 02:12:14;;;;;;;12.30;8.55;;;16.30;99.90;;;;;;5035572;28;20206;-81
2023/07/28 02:14:40;;;;;;;11.80;7.50;;;16.30;99.90;;;;;;5018149;28;20179;-81
2023/07/28 02:17:05;;;;;;;10.38;7.15;;;16.30;99.90;;;;;;5035730;28;20183;-80
2023/07/28 02:19:31;;;;;;;11.30;7.32;;;16.30;99.90;;;;;;5017652;28;20697;-81
2023/07/28 02:21:57;;;;;;;9.82;6.40;;;16.30;99.90;;;;;;5035553;28;20175;-81
2023/07/28 02:24:22;;;;;;;11.05;6.55;;;16.30;99.90;;;;;;5017678;28;20199;-81
2023/07/28 02:26:48;;;;;;;11.18;6.80;;;16.30;99.90;;;;;;5018109;28;20179;-81
2023/07/28 02:29:14;;;;;;;9.63;6.35;;;16.40;99.90;;;;;;5035397;28;20171;-80
2023/07/28 02:31:39;;;;;;;9.73;6.93;;;16.30;99.90;;;;;;5017746;28;20186;-81
2023/07/28 02:34:05;;;;;;;10.43;6.60;;;16.30;99.90;;;;;;5017647;28;20202;-81
2023/07/28 02:36:31;;;;;;;9.38;5.93;;;16.30;99.90;;;;;;5018105;28;20569;-80
2023/07/28 02:38:57;;;;;;;10.57;6.70;;;16.30;99.90;;;;;;5017357;28;20206;-81
2023/07/28 02:41:23;;;;;;;10.25;6.68;;;16.30;99.90;;;;;;5017508;28;20266;-81
2023/07/28 02:43:48;;;;;;;12.60;5.80;;;16.30;99.90;;;;;;5017396;28;20639;-81
2023/07/28 02:46:14;;;;;;;8.50;5.57;;;16.30;99.90;;;;;;5017407;28;20275;-81
2023/07/28 02:48:40;;;;;;;10.00;6.25;;;16.30;99.90;;;;;;5017636;28;20189;-81
2023/07/28 02:51:05;;;;;;;13.60;6.13;;;16.40;99.90;;;;;;5018321;28;20274;-81
2023/07/28 02:53:31;;;;;;;9.43;5.47;;;16.30;99.90;;;;;;5036531;28;20195;-81
2023/07/28 02:55:57;;;;;;;8.25;5.22;;;16.30;99.90;;;;;;5036037;28;20180;-81
2023/07/28 02:58:23;;;;;;;7.78;5.22;;;16.40;99.90;;;;;;5017607;28;20261;-81
2023/07/28 03:00:52;;;;;;;7.18;5.47;;;16.30;99.90;;;;;;5021305;28;20628;-81
2023/07/28 03:03:17;;;;;;;8.05;5.25;;;16.30;99.90;;;;;;5021092;28;20574;-81
2023/07/28 03:05:43;;;;;;;9.80;5.60;;;16.30;99.90;;;;;;5020653;28;20262;-81
2023/07/28 03:08:09;;;;;;;9.05;5.90;;;16.30;99.90;;;;;;5020420;28;20755;-80
2023/07/28 03:10:35;;;;;;;8.52;5.63;;;16.30;99.90;;;;;;5019920;28;20179;-80
2023/07/28 03:13:01;;;;;;;9.48;5.25;;;16.30;99.90;;;;;;5037445;28;20260;-80
2023/07/28 03:15:26;;;;;;;10.00;6.10;;;16.40;99.90;;;;;;5019774;28;20189;-80
2023/07/28 03:17:54;;;;;;;8.63;5.82;;;16.40;99.90;;;;;;5018742;28;20191;-80
2023/07/28 03:20:21;;;;;;;6.35;4.63;;;16.40;99.90;;;;;;5036646;28;20186;-80
2023/07/28 03:22:46;;;;;;;8.20;5.45;;;16.40;99.90;;;;;;5035579;28;20190;-80
2023/07/28 03:25:13;;;;;;;8.55;5.32;;;16.40;99.90;;;;;;5017322;28;20179;-80
2023/07/28 03:27:38;;;;;;;7.43;5.07;;;16.40;99.90;;;;;;5016910;28;20324;-80
2023/07/28 03:30:06;;;;;;;9.30;5.25;;;16.40;99.90;;;;;;5034416;28;20216;-80
2023/07/28 03:32:32;;;;;;;7.45;5.20;;;16.40;99.90;;;;;;5016882;28;20195;-80
2023/07/28 03:34:58;;;;;;;5.63;4.30;;;16.40;99.90;;;;;;5016269;28;20190;-80
2023/07/28 03:37:24;;;;;;;10.60;4.82;;;16.40;99.90;;;;;;5033919;28;20175;-80
2023/07/28 03:39:50;;;;;;;8.52;4.80;;;16.40;99.90;;;;;;5016304;28;20179;-81
2023/07/28 03:42:15;;;;;;;9.25;5.00;;;16.50;99.90;;;;;;5016755;28;20183;-81
2023/07/28 03:44:41;;;;;;;7.47;5.05;;;16.40;99.90;;;;;;5016481;28;20186;-81
2023/07/28 03:47:07;;;;;;;7.50;4.63;;;16.40;99.90;;;;;;5016678;28;20179;-80
2023/07/28 03:49:33;;;;;;;6.43;4.63;;;16.40;99.90;;;;;;5016682;28;20534;-80
2023/07/28 03:51:59;;;;;;;7.32;4.43;;;16.40;99.90;;;;;;5037712;28;20265;-80
2023/07/28 03:54:25;;;;;;;7.20;4.18;;;16.50;99.90;;;;;;5038460;28;20194;-80
2023/07/28 03:56:51;;;;;;;6.22;4.22;;;16.40;99.90;;;;;;5020779;28;20189;-80
2023/07/28 03:59:17;;;;;;;7.57;4.13;;;16.40;99.90;;;;;;5020895;28;20670;-80
2023/07/28 04:01:43;;;;;;;5.93;4.05;;;16.40;99.90;;;;;;5021609;28;20205;-81
2023/07/28 04:04:08;;;;;;;7.90;4.28;;;16.40;99.90;;;;;;5025935;28;20235;-80
2023/07/28 04:06:42;;;;;;;4.43;3.22;;;16.40;99.90;;;;;;5026116;28;20179;-81
2023/07/28 04:09:08;;;;;;;7.68;3.67;;;16.40;99.90;;;;;;5026202;28;20262;-81
2023/07/28 04:11:34;;;;;;;6.47;3.72;;;16.50;99.90;;;;;;5025706;28;20178;-81
2023/07/28 04:14:00;;;;;;;6.28;3.80;;;16.50;99.90;;;;;;5026317;28;20246;-81
2023/07/28 04:16:25;;;;;;;10.25;4.10;;;16.50;99.90;;;;;;5025112;28;20218;-81
2023/07/28 04:18:52;;;;;;;6.05;3.78;;;16.40;99.90;;;;;;5024714;28;20341;-81
2023/07/28 04:21:18;;;;;;;7.32;3.55;;;16.50;99.90;;;;;;5025971;28;20632;-81
2023/07/28 04:23:44;;;;;;;7.93;3.92;;;16.50;99.90;;;;;;5043051;28;20195;-81
2023/07/28 04:26:09;;;;;;;5.43;3.83;;;16.50;99.90;;;;;;5042428;28;20175;-81
2023/07/28 04:28:35;;;;;;;5.30;3.83;;;16.50;99.90;;;;;;5042322;28;20175;-81
2023/07/28 04:31:01;;;;;;;7.55;4.13;;;16.50;99.90;;;;;;5024159;28;20648;-81
2023/07/28 04:33:27;;;;;;;10.95;4.78;;;16.60;99.90;;;;;;5023482;28;20198;-81
2023/07/28 04:35:52;;;;;;;6.10;4.13;;;16.60;99.90;;;;;;5041748;28;20167;-81
2023/07/28 04:38:18;;;;;;;12.55;4.75;;;16.50;99.90;;;;;;5023718;28;20213;-81
2023/07/28 04:40:44;;;;;;;7.68;4.15;;;16.60;99.90;;;;;;5023194;28;20175;-81
2023/07/28 04:43:10;;;;;;;6.70;3.72;;;16.60;99.90;;;;;;5023645;28;20194;-81
2023/07/28 04:45:36;;;;;;;6.43;3.70;;;16.60;99.90;;;;;;5022170;28;20179;-83
2023/07/28 04:48:02;;;;;;;5.30;3.47;;;16.70;99.90;;;;;;5021438;28;20676;-83
2023/07/28 04:50:28;;;;;;;7.53;3.67;;;16.70;99.90;;;;;;5021500;28;20182;-82
2023/07/28 04:52:54;;;;;;;8.65;3.65;;;16.70;99.90;;;;;;5039198;28;20226;-82
2023/07/28 04:55:20;;;;;;;5.97;3.72;;;16.70;99.90;;;;;;5021431;28;20183;-82
2023/07/28 04:57:46;;;;;;;4.93;3.60;;;16.70;99.90;;;;;;5040210;28;20694;-83
2023/07/28 05:00:12;;;;;;;6.53;4.13;;;16.70;99.90;;;;;;5021291;28;20185;-82
2023/07/28 05:02:38;;;;;;;7.90;4.55;;;16.70;99.90;;;;;;5021170;28;20206;-83
2023/07/28 05:05:04;;;;;;;13.25;4.63;;;16.70;99.90;;;;;;5020857;28;20175;-82
2023/07/28 05:07:30;;;;;;;9.32;5.22;;;16.70;99.90;;;;;;5021290;28;20624;-83
2023/07/28 05:09:56;;;;;;;10.50;5.57;;;16.70;99.90;;;;;;5038648;28;20179;-82
2023/07/28 05:12:22;;;;;;;7.40;4.97;;;16.80;99.90;;;;;;5038949;28;20191;-82
2023/07/28 05:14:48;;;;;;;9.40;4.70;;;16.80;99.90;;;;;;5020518;28;20183;-82
2023/07/28 05:17:13;;;;;;;5.95;3.85;;;16.90;99.90;;;;;;5019903;28;20186;-82
2023/07/28 05:19:40;;;;;;;5.90;3.30;;;16.90;99.90;;;;;;5019881;28;20256;-82
2023/07/28 05:22:06;;;;;;;5.45;3.35;;;16.90;99.90;;;;;;5019964;28;20183;-83
2023/07/28 05:24:35;;;;;;;4.75;3.58;;;17.00;99.90;;;;;;5037142;28;20179;-82
2023/07/28 05:27:01;;;;;;;3.13;2.80;;;17.00;99.90;;;;;;5019405;28;20171;-82
2023/07/28 05:29:27;;;;;;;6.45;3.05;;;17.00;99.90;;;;;;5019805;28;20210;-82
2023/07/28 05:31:53;;;;;;;4.93;3.10;;;17.00;99.90;;;;;;5019591;28;20167;-82
2023/07/28 05:34:18;;;;;;;3.78;2.83;;;17.00;99.90;;;;;;5020167;28;20253;-82
2023/07/28 05:36:44;;;;;;;3.03;2.70;;;17.00;99.90;;;;;;5037070;28;20172;-82
2023/07/28 05:39:10;;;;;;;3.72;2.60;;;17.00;99.90;;;;;;5019360;28;20210;-82
2023/07/28 05:41:39;;;;;;;4.90;3.42;;;17.00;99.90;;;;;;5036890;28;20647;-83
2023/07/28 05:44:05;;;;;;;4.43;3.25;;;17.10;99.90;;;;;;5039430;28;20270;-83
2023/07/28 05:46:30;;;;;;;5.40;3.28;;;17.10;99.90;;;;;;5026898;28;20205;-83
2023/07/28 05:48:56;;;;;;;4.10;3.00;;;17.10;99.90;;;;;;5044868;28;20187;-83
2023/07/28 05:51:22;;;;;;;5.28;3.08;;;17.20;99.90;;;;;;5045452;28;20181;-83
2023/07/28 05:53:50;;;;;;;4.40;3.20;;;17.20;99.90;;;;;;5026732;28;20210;-83
2023/07/28 05:56:15;;;;;;;5.47;3.70;;;17.30;99.90;;;;;;5027609;28;20194;-83
2023/07/28 05:58:41;;;;;;;8.20;3.92;;;17.30;99.90;;;;;;5028098;28;20202;-83
2023/07/28 06:01:07;;;;;;;5.53;3.83;;;17.30;99.90;;;;;;5029042;28;20175;-83
2023/07/28 06:03:34;;;;;;;6.40;4.15;;;17.30;99.90;;;;;;5048994;28;20209;-83
2023/07/28 06:05:59;;;;;;;7.97;3.88;;;17.30;99.90;;;;;;5052685;28;20171;-81
2023/07/28 06:08:25;;;;;;;6.97;4.13;;;17.30;99.90;;;;;;5041378;28;20218;-82
2023/07/28 06:10:51;;;;;;;8.52;4.93;;;17.40;99.90;;;;;;5010496;28;20183;-82
2023/07/28 06:13:17;;;;;;;6.88;4.95;;;17.50;99.90;;;;;;5023859;28;20219;-82
2023/07/28 06:15:42;;;;;;;6.45;4.82;;;17.50;99.90;;;;;;5023441;28;20182;-82
2023/07/28 06:18:08;;;;;;;6.07;4.93;;;17.60;99.90;;;;;;5040116;28;20217;-83
2023/07/28 06:20:34;;;;;;;7.28;5.40;;;17.70;99.90;;;;;;5004211;28;20171;-83
2023/07/28 06:23:00;;;;;;;7.65;5.25;;;17.90;99.90;;;;;;5021264;28;20203;-82
2023/07/28 06:25:27;;;;;;;12.05;5.40;;;17.90;99.90;;;;;;5000716;28;20172;-81
2023/07/28 06:27:52;;;;;;;9.13;5.95;;;18.00;99.90;;;;;;5000615;28;20207;-81
2023/07/28 06:30:18;;;;;;;12.63;6.05;;;17.90;99.90;;;;;;5001810;28;20184;-81
2023/07/28 06:32:44;;;;;;;11.60;6.70;;;18.10;99.90;;;;;;5001281;28;20218;-81
2023/07/28 06:35:10;;;;;;;9.23;6.10;;;18.00;99.90;;;;;;5001172;28;20184;-80
2023/07/28 06:37:39;;;;;;;8.90;6.43;;;18.00;99.90;;;;;;5002206;28;20187;-80
2023/07/28 06:40:09;;;;;;;7.82;5.32;;;18.00;99.90;;;;;;5001695;28;20671;-80
2023/07/28 06:42:36;;;;;;;9.95;5.35;;;18.00;99.90;;;;;;5001397;28;20265;-80
2023/07/28 06:45:03;;;;;;;7.70;4.82;;;18.10;99.90;;;;;;5002279;28;20172;-80
2023/07/28 06:47:29;;;;;;;6.70;5.10;;;18.20;99.90;;;;;;5001976;28;20269;-80
2023/07/28 06:49:54;;;;;;;7.95;6.30;;;18.30;99.90;;;;;;5016779;28;20186;-80
2023/07/28 06:52:20;;;;;;;7.95;4.90;;;18.30;99.90;;;;;;5038557;28;20163;-80
2023/07/28 06:54:48;;;;;;;7.68;5.32;;;18.20;99.90;;;;;;5020088;28;20189;-78
2023/07/28 06:57:15;;;;;;;8.13;5.32;;;18.10;99.90;;;;;;5019967;28;20175;-77
2023/07/28 06:59:42;;;;;;;7.78;4.78;;;18.10;99.90;;;;;;5037253;28;20202;-77
2023/07/28 07:02:09;;;;;;;10.82;5.40;;;18.10;99.90;;;;;;5018345;28;20186;-78
2023/07/28 07:04:35;;;;;;;11.77;5.07;;;18.00;99.90;;;;;;5034825;28;20189;-78
2023/07/28 07:07:00;;;;;;;6.53;4.45;;;18.00;99.90;;;;;;5016879;28;20605;-78
2023/07/28 07:09:26;;;;;;;7.95;4.38;;;18.00;99.90;;;;;;5016753;28;20175;-78
2023/07/28 07:11:52;;;;;;;8.95;5.25;;;18.00;99.90;;;;;;5034556;28;20305;-78
2023/07/28 07:14:18;;;;;;;5.78;4.15;;;18.00;99.90;;;;;;5018836;28;20297;-78
2023/07/28 07:16:44;;;;;;;7.32;3.83;;;18.00;99.90;;;;;;5019720;28;20596;-78
2023/07/28 07:19:10;;;;;;;9.18;3.65;;;18.00;99.90;;;;;;5021987;28;20745;-79
2023/07/28 07:21:36;;;;;;;4.00;3.17;;;18.00;99.90;;;;;;5020954;28;20644;-78
2023/07/28 07:24:04;;;;;;;7.30;4.03;;;18.10;99.90;;;;;;5020119;28;20198;-79
2023/07/28 07:26:31;;;;;;;7.28;4.00;;;18.00;99.90;;;;;;5035103;28;20187;-79
2023/07/28 07:28:57;;;;;;;5.13;3.25;;;18.10;99.90;;;;;;5035939;28;20179;-77
2023/07/28 07:31:23;;;;;;;5.30;3.88;;;18.20;99.90;;;;;;5017353;28;20171;-76
2023/07/28 07:33:49;;;;;;;5.05;4.05;;;18.30;99.90;;;;;;5017023;28;20214;-76
2023/07/28 07:36:16;;;;;;;7.03;4.72;;;18.30;99.90;;;;;;5017006;28;20182;-76
2023/07/28 07:38:45;;;;;;;7.25;4.85;;;18.30;99.90;;;;;;5016700;28;20206;-77
2023/07/28 07:41:12;;;;;;;6.30;4.53;;;18.30;99.90;;;;;;5016654;28;20179;-76
2023/07/28 07:43:39;;;;;;;6.88;4.30;;;18.40;99.90;;;;;;5016272;28;20206;-77
2023/07/28 07:46:05;;;;;;;4.38;3.97;;;18.30;99.90;;;;;;5016151;28;20171;-77
2023/07/28 07:48:30;;;;;;;7.75;3.90;;;18.30;99.90;;;;;;5033780;28;20198;-77
2023/07/28 07:50:56;;;;;;;5.68;3.92;;;18.30;99.90;;;;;;5015735;28;20182;-76
2023/07/28 07:53:22;;;;;;;3.63;3.20;;;18.30;99.90;;;;;;5034422;28;20292;-76
2023/07/28 07:55:49;;;;;;;4.78;3.60;;;18.40;99.90;;;;;;5035380;28;20517;-76
2023/07/28 07:58:14;;;;;;;5.40;3.55;;;18.50;99.90;;;;;;5017659;28;20217;-76
2023/07/28 08:00:40;;;;;;;6.28;4.35;;;18.60;99.90;;;;;;5018051;28;20258;-76
2023/07/28 08:03:06;;;;;;;6.15;4.35;;;18.70;99.90;;;;;;5035433;28;20198;-76
2023/07/28 08:05:32;;;;;;;5.43;4.18;;;18.70;99.90;;;;;;5035417;28;20246;-76
2023/07/28 08:07:58;;;;;;;5.43;4.07;;;18.70;99.90;;;;;;5018126;28;20186;-76
2023/07/28 08:10:24;;;;;;;6.13;4.47;;;18.70;99.90;;;;;;5017998;28;20262;-76
2023/07/28 08:12:49;;;;;;;6.00;4.70;;;18.80;99.90;;;;;;5017097;28;20327;-76
2023/07/28 08:15:15;;;;;;;6.45;4.82;;;18.80;99.90;;;;;;5034039;28;20642;-76
2023/07/28 08:17:41;;;;;;;6.40;5.05;;;18.80;99.90;;;;;;5017191;28;20771;-76
2023/07/28 08:20:08;;;;;;;7.20;4.97;;;18.80;99.90;;;;;;5016889;28;20183;-76
2023/07/28 08:22:34;;;;;;;6.93;4.85;;;18.80;99.90;;;;;;5016850;28;20249;-76
2023/07/28 08:24:59;;;;;;;8.27;5.40;;;18.90;99.90;;;;;;5017409;28;20163;-76
2023/07/28 08:27:25;;;;;;;6.68;4.65;;;19.00;99.90;;;;;;5017147;28;20183;-76
2023/07/28 08:29:51;;;;;;;7.43;4.97;;;19.10;99.90;;;;;;5017339;28;20206;-78
2023/07/28 08:32:17;;;;;;;6.57;4.65;;;19.20;99.90;;;;;;5034543;28;20255;-76
2023/07/28 08:34:43;;;;;;;8.10;4.45;;;19.20;99.90;;;;;;5035510;28;20225;-76
2023/07/28 08:37:09;;;;;;;6.32;4.10;;;19.10;99.90;;;;;;5018424;28;20214;-77
2023/07/28 08:39:34;;;;;;;5.85;4.28;;;19.10;99.90;;;;;;5019874;28;20227;-76
2023/07/28 08:42:02;;;;;;;3.97;3.40;;;19.10;99.90;;;;;;5020098;28;20167;-76
2023/07/28 08:44:32;;;;;;;4.05;3.05;;;19.10;99.90;;;;;;5036996;28;20191;-75
2023/07/28 08:47:04;;;;;;;5.93;3.90;;;19.10;99.90;;;;;;5036436;28;20676;-76
2023/07/28 08:49:35;;;;;;;7.70;3.60;;;19.10;99.90;;;;;;5019204;28;20237;-76
2023/07/28 08:52:02;;;;;;;7.68;3.33;;;19.10;99.90;;;;;;5019544;28;20171;-76
2023/07/28 08:54:28;;;;;;;3.35;2.92;;;19.10;99.90;;;;;;5037827;28;20195;-76
2023/07/28 08:56:53;;;;;;;2.95;2.70;;;19.20;99.90;;;;;;5037676;28;20202;-76
2023/07/28 08:59:25;;;;;;;3.45;2.63;;;19.20;99.90;;;;;;5018462;28;20194;-75
2023/07/28 09:01:52;;;;;;;4.68;2.90;;;19.20;99.90;;;;;;5036149;28;20155;-75
2023/07/28 09:04:18;;;;;;;3.85;2.83;;;19.30;99.90;;;;;;5036106;28;20726;-75
2023/07/28 09:06:48;;;;;;;3.08;2.67;;;19.30;99.90;;;;;;5036211;28;20620;-76
2023/07/28 09:09:14;;;;;;;3.17;2.40;;;19.30;99.90;;;;;;5036334;28;20614;-75
2023/07/28 09:11:47;;;;;;;2.60;2.22;;;19.30;99.90;;;;;;5036629;28;20542;-76
2023/07/28 09:14:16;;;;;;;2.92;2.50;;;19.50;99.90;;;;;;5018608;28;20199;-77
2023/07/28 09:16:45;;;;;;;2.53;2.28;;;19.50;99.90;;;;;;5035804;28;20175;-76
2023/07/28 09:19:11;;;;;;;2.80;2.47;;;19.50;99.90;;;;;;5036333;28;20614;-76
2023/07/28 09:21:42;;;;;;;2.50;2.30;;;19.50;99.90;;;;;;5036234;28;20171;-78
2023/07/28 09:24:13;;;;;;;2.50;2.30;;;19.50;99.90;;;;;;5018537;28;20253;-77
2023/07/28 09:26:39;;;;;;;2.70;2.50;;;19.60;99.90;;;;;;5018460;28;20179;-78
2023/07/28 09:29:16;;;;;;;2.45;2.17;;;19.70;99.90;;;;;;5018635;28;20206;-77
2023/07/28 09:31:48;;;;;;;2.60;2.40;;;19.80;99.90;;;;;;5017885;28;20174;-77
2023/07/28 09:34:27;;;;;;;2.67;2.20;;;19.80;99.90;;;;;;5035769;28;20727;-77
2023/07/28 09:36:58;;;;;;;2.42;2.22;;;19.80;99.90;;;;;;5018723;28;20546;-77
2023/07/28 09:39:25;;;;;;;3.45;1.90;;;19.80;99.90;;;;;;5018646;28;20199;-78
2023/07/28 09:41:51;;;;;;;2.33;1.98;;;19.90;99.90;;;;;;5018764;28;20644;-78
2023/07/28 09:44:17;;;;;;;2.05;1.92;;;20.10;99.90;;;;;;5018142;28;20290;-78
2023/07/28 09:46:57;;;;;;;2.28;2.08;;;20.30;99.90;;;;;;5035709;28;20254;-78
2023/07/28 09:49:39;;;;;;;2.05;1.70;;;20.40;99.90;;;;;;5018965;28;20274;-78
2023/07/28 09:52:09;;;;;;;2.10;2.00;;;20.50;99.90;;;;;;5021843;28;20194;-79
2023/07/28 09:54:42;;;;;;;2.13;2.03;;;20.60;99.90;;;;;;5021469;28;20217;-79
2023/07/28 09:57:15;;;;;;;2.40;1.70;;;20.80;99.90;;;;;;5021778;28;20191;-79
2023/07/28 09:59:42;;;;;;;1.73;1.63;;;20.80;99.90;;;;;;5020939;28;20196;-79
2023/07/28 10:02:09;;;;;;;2.20;2.00;;;20.70;99.90;;;;;;5020741;28;20175;-79
2023/07/28 10:04:35;;;;;;;2.50;2.30;;;20.50;99.90;;;;;;5038840;28;20175;-79
2023/07/28 10:07:04;;;;;;;5.18;2.30;;;20.60;99.90;;;;;;5021069;28;20167;-79
2023/07/28 10:09:31;;;;;;;2.47;2.22;;;20.70;99.90;;;;;;5020658;28;20206;-79
2023/07/28 10:11:57;;;;;;;4.00;2.33;;;20.90;99.90;;;;;;5020432;28;20729;-79
2023/07/28 10:14:31;;;;;;;3.83;2.08;;;21.20;99.90;;;;;;5037053;28;20203;-78
2023/07/28 10:16:58;;;;;;;2.55;2.13;;;21.90;99.90;;;;;;5018229;28;20209;-78
2023/07/28 10:19:28;;;;;;;4.13;2.10;;;22.00;99.90;;;;;;5018181;28;20207;-78
2023/07/28 10:22:08;;;;;;;2.45;2.20;;;22.00;99.90;;;;;;5037379;28;20185;-79
2023/07/28 10:24:53;;;;;;;2.58;1.77;;;22.00;99.90;;;;;;5036709;28;20688;-79
2023/07/28 10:27:50;;;;;;;2.50;2.15;;;21.90;99.90;;;;;;5019128;28;20171;-79
2023/07/28 10:30:16;;;;;;;3.60;2.35;;;21.70;99.90;;;;;;5003244;28;20241;-78
2023/07/28 10:32:50;;;;;;;3.17;2.55;;;21.40;99.90;;;;;;5018357;28;20194;-78
2023/07/28 10:35:21;;;;;;;3.05;2.63;;;21.10;99.90;;;;;;5036444;28;20152;-78
2023/07/28 10:37:47;;;;;;;4.03;3.17;;;21.00;99.90;;;;;;5018128;28;20199;-78
2023/07/28 10:40:30;;;;;;;7.20;3.10;;;21.10;99.90;;;;;;5017350;28;20210;-78
2023/07/28 10:42:56;;;;;;;3.97;2.78;;;21.10;99.90;;;;;;5016957;28;20203;-78
2023/07/28 10:45:24;;;;;;;3.70;3.30;;;21.10;99.90;;;;;;5034782;28;20174;-77
2023/07/28 10:47:52;;;;;;;5.95;3.50;;;21.30;99.90;;;;;;5017048;28;20556;-77
2023/07/28 10:50:18;;;;;;;4.15;3.30;;;21.30;99.90;;;;;;5017168;28;20187;-77
2023/07/28 10:52:45;;;;;;;3.60;3.13;;;21.60;99.90;;;;;;5035201;28;20195;-78
2023/07/28 10:55:21;;;;;;;3.33;3.05;;;21.60;99.90;;;;;;5017068;28;20189;-77
2023/07/28 10:57:49;;;;;;;3.40;3.10;;;21.50;99.90;;;;;;5016899;28;20164;-77
2023/07/28 11:00:17;;;;;;;4.25;3.17;;;21.40;99.90;;;;;;5016548;28;20644;-78
2023/07/28 11:02:44;;;;;;;3.78;3.47;;;21.20;99.90;;;;;;5016638;28;20206;-78
2023/07/28 11:05:19;;;;;;;5.53;3.95;;;21.10;99.90;;;;;;5017196;28;20553;-78
2023/07/28 11:07:46;;;;;;;6.28;4.18;;;21.00;99.90;;;;;;5017277;28;20627;-77
2023/07/28 11:10:15;;;;;;;5.35;4.55;;;21.10;99.90;;;;;;5016942;28;20218;-77
2023/07/28 11:12:43;;;;;;;6.30;4.32;;;21.10;99.90;;;;;;5034273;28;20217;-77
2023/07/28 11:15:13;;;;;;;5.43;4.93;;;21.00;99.90;;;;;;5035051;28;20237;-77
2023/07/28 11:17:40;;;;;;;5.20;4.72;;;20.90;99.90;;;;;;5016629;28;20254;-78
2023/07/28 11:20:25;;;;;;;6.28;4.85;;;20.80;99.90;;;;;;5017096;28;20702;-77
2023/07/28 11:23:05;;;;;;;5.13;4.57;;;20.70;99.90;;;;;;5017404;28;20301;-77
2023/07/28 11:25:33;;;;;;;5.13;4.00;;;20.50;99.90;;;;;;5017242;28;20210;-77
2023/07/28 11:28:03;;;;;;;5.28;4.32;;;20.60;99.90;;;;;;5034962;28;20179;-78
2023/07/28 11:30:29;;;;;;;5.47;4.53;;;20.70;99.90;;;;;;5017225;28;20631;-77
2023/07/28 11:32:54;;;;;;;6.68;4.63;;;20.90;99.90;;;;;;5017372;28;20298;-77
2023/07/28 11:35:24;;;;;;;4.53;4.13;;;21.30;99.90;;;;;;5017397;28;20207;-77
2023/07/28 11:37:52;;;;;;;6.25;4.40;;;21.50;99.90;;;;;;5017150;28;20214;-78
2023/07/28 11:40:21;;;;;;;4.68;3.35;;;21.70;99.90;;;;;;5017814;28;20658;-78
2023/07/28 11:42:51;;;;;;;4.15;3.67;;;21.90;99.90;;;;;;5035810;28;20187;-77
2023/07/28 11:45:18;;;;;;;3.45;3.15;;;22.00;99.90;;;;;;5017678;28;20184;-76
2023/07/28 11:47:59;;;;;;;4.72;3.40;;;22.00;99.90;;;;;;5016252;28;20636;-75
2023/07/28 11:50:27;;;;;;;4.93;3.30;;;21.90;99.90;;;;;;5016438;28;20195;-76
2023/07/28 11:52:54;;;;;;;5.93;3.63;;;22.10;99.90;;;;;;5016235;28;20194;-76
2023/07/28 11:55:22;;;;;;;5.18;3.20;;;22.40;99.90;;;;;;5034956;28;20637;-76
2023/07/28 11:57:49;;;;;;;5.10;3.95;;;22.40;99.90;;;;;;5016804;28;20199;-76
2023/07/28 12:00:25;;;;;;;10.23;3.95;;;22.40;99.90;;;;;;5033977;28;20195;-75
2023/07/28 12:03:04;;;;;;;6.75;3.90;;;22.30;99.90;;;;;;5033961;28;20290;-76
2023/07/28 12:05:30;;;;;;;3.90;3.50;;;22.40;99.90;;;;;;5034506;28;20654;-75
2023/07/28 12:07:56;;;;;;;4.03;2.58;;;22.30;99.90;;;;;;5016700;28;20237;-75
2023/07/28 12:10:21;;;;;;;3.08;2.70;;;22.40;99.90;;;;;;5016548;28;20183;-75
2023/07/28 12:12:48;;;;;;;3.03;2.72;;;22.40;99.90;;;;;;5019512;28;20242;-76
2023/07/28 12:15:30;;;;;;;2.90;2.60;;;22.40;99.90;;;;;;5038456;28;20175;-76
2023/07/28 12:18:05;;;;;;;2.53;2.33;;;22.50;99.90;;;;;;5020727;28;20214;-76
2023/07/28 12:20:41;;;;;;;3.47;2.30;;;22.80;99.90;;;;;;5000259;28;20178;-76
2023/07/28 12:23:08;;;;;;;4.28;2.50;;;23.10;99.90;;;;;;5000515;28;20195;-76
2023/07/28 12:25:36;;;;;;;2.55;2.35;;;23.50;99.90;;;;;;5017652;28;20176;-76
2023/07/28 12:28:02;;;;;;;5.00;2.50;;;23.80;99.90;;;;;;5017711;28;20168;-76
2023/07/28 12:30:28;;;;;;;2.50;2.30;;;24.00;99.90;;;;;;5017901;28;20184;-76
2023/07/28 12:32:54;;;;;;;2.15;2.00;;;24.20;99.90;;;;;;5017551;28;20199;-76
2023/07/28 12:35:23;;;;;;;3.25;2.50;;;24.10;99.90;;;;;;5017655;28;20202;-76
2023/07/28 12:37:50;;;;;;;2.28;2.08;;;23.80;99.90;;;;;;5017196;28;20226;-75
2023/07/28 12:40:16;;;;;;;3.15;1.95;;;23.70;99.90;;;;;;5018362;28;20568;-75
2023/07/28 12:42:42;;;;;;;2.08;1.85;;;23.70;99.90;;;;;;4999979;28;20234;-76
2023/07/28 12:45:08;;;;;;;2.20;2.00;;;24.00;99.90;;;;;;4999869;28;20186;-75